CIUDAD REAL current weather conditions

sailwx.info

Wind from 010 at 3 knots

Air temperature 31.0° C
Dewpoint 11.0° C

Last reported at 2015-Jul-04 10:00 UTC.
Time now 2015-Jul-04 11:48 UTC

Location: N 38°59' W 003°55'.
View on Google Maps.

See reports from other nearby stations

  
Tides and Currents Weather Stations Pressure Air Temp Water Temp Dewpoint Dewpoint Depression Visibility Wind Speed Wind Dir Waves Ship Positions
date/time (UTC)wind fromknots sea level pressurealtimeterstation pressurevisibilityair tempwater tempwave heightnotes
2015-Jul-04 10:00 010 3 31.0
2015-Jul-04 09:00 040 3 28.0
2015-Jul-04 08:00 25.0
2015-Jul-04 07:00 060 3 23.0
2015-Jul-04 06:00 20.0
2015-Jul-04 05:00 19.0
2015-Jul-03 18:00 260 10 37.0
2015-Jul-03 17:00 270 11 38.0
2015-Jul-03 16:00 240 8 38.0
2015-Jul-03 15:00 280 4 37.0
2015-Jul-03 14:00 280 5 36.0
2015-Jul-03 13:00 36.0
2015-Jul-03 12:00 160 1 34.0
2015-Jul-03 11:00 150 2 32.0
2015-Jul-03 10:00 050 2 31.0
2015-Jul-03 09:00 030 2 28.0
2015-Jul-03 08:00 120 1 26.0
2015-Jul-03 07:00 080 3 22.0
2015-Jul-03 06:00 19.0
2015-Jul-03 05:00 19.0
2015-Jul-02 21:00 27.0
2015-Jul-02 20:00 060 4 30.0
2015-Jul-02 19:00 030 4 33.0
2015-Jul-02 18:00 340 3 35.0
2015-Jul-02 17:00 360 5 35.0
2015-Jul-02 16:00 270 4 35.0
2015-Jul-02 15:00 170 3 34.0
2015-Jul-02 14:00 080 4 33.0
2015-Jul-02 13:00 140 4 32.0
2015-Jul-02 12:00 140 3 30.0
2015-Jul-02 11:00 080 1 29.0